sensor_id;sensor_type;location;lat;lon;timestamp;pressure;altitude;pressure_sealevel;temperature;humidity
30110;BME280;14965;50.660;13.226;2024-01-06T00:02:29;93651.38;;;1.48;100.00
30110;BME280;14965;50.660;13.226;2024-01-06T00:04:56;93653.81;;;1.39;100.00
30110;BME280;14965;50.660;13.226;2024-01-06T00:07:23;93648.44;;;1.35;100.00
30110;BME280;14965;50.660;13.226;2024-01-06T00:09:54;93646.97;;;1.27;100.00
30110;BME280;14965;50.660;13.226;2024-01-06T00:12:25;93658.72;;;1.20;100.00
30110;BME280;14965;50.660;13.226;2024-01-06T00:14:55;93652.94;;;1.18;100.00
30110;BME280;14965;50.660;13.226;2024-01-06T00:17:21;93654.09;;;1.17;100.00
30110;BME280;14965;50.660;13.226;2024-01-06T00:19:49;93661.88;;;1.15;100.00
30110;BME280;14965;50.660;13.226;2024-01-06T00:22:17;93667.75;;;1.14;100.00
30110;BME280;14965;50.660;13.226;2024-01-06T00:51:47;93682.31;;;0.96;100.00
30110;BME280;14965;50.660;13.226;2024-01-06T02:24:51;93685.78;;;0.63;100.00
30110;BME280;14965;50.660;13.226;2024-01-06T02:27:35;93688.91;;;0.61;100.00
30110;BME280;14965;50.660;13.226;2024-01-06T02:30:11;93685.78;;;0.63;100.00
30110;BME280;14965;50.660;13.226;2024-01-06T07:21:25;93873.41;;;0.93;100.00
30110;BME280;14965;50.660;13.226;2024-01-06T07:43:01;93895.50;;;0.99;100.00
30110;BME280;14965;50.660;13.226;2024-01-06T08:31:46;93950.13;;;1.15;100.00
30110;BME280;14965;50.660;13.226;2024-01-06T08:37:03;93957.53;;;1.15;100.00
30110;BME280;14965;50.660;13.226;2024-01-06T08:39:38;93952.50;;;1.13;100.00
30110;BME280;14965;50.660;13.226;2024-01-06T08:58:25;93970.72;;;1.16;100.00
30110;BME280;14965;50.660;13.226;2024-01-06T09:00:51;93977.28;;;1.22;100.00
30110;BME280;14965;50.660;13.226;2024-01-06T09:03:17;93971.06;;;1.26;100.00
30110;BME280;14965;50.660;13.226;2024-01-06T09:05:43;93980.34;;;1.28;100.00
30110;BME280;14965;50.660;13.226;2024-01-06T09:08:09;93972.19;;;1.24;100.00
30110;BME280;14965;50.660;13.226;2024-01-06T09:10:35;93981.19;;;1.21;100.00
30110;BME280;14965;50.660;13.226;2024-01-06T09:13:01;93987.00;;;1.20;100.00
30110;BME280;14965;50.660;13.226;2024-01-06T09:15:28;93986.66;;;1.18;100.00
30110;BME280;14965;50.660;13.226;2024-01-06T09:17:54;93986.66;;;1.18;100.00
30110;BME280;14965;50.660;13.226;2024-01-06T09:20:20;93988.94;;;1.19;100.00
30110;BME280;14965;50.660;13.226;2024-01-06T09:22:46;93987.00;;;1.20;100.00
30110;BME280;14965;50.660;13.226;2024-01-06T09:25:12;93981.19;;;1.21;100.00
30110;BME280;14965;50.660;13.226;2024-01-06T09:27:38;93986.97;;;1.23;100.00
30110;BME280;14965;50.660;13.226;2024-01-06T09:30:05;93988.53;;;1.24;100.00
30110;BME280;14965;50.660;13.226;2024-01-06T09:32:33;93985.00;;;1.28;100.00
30110;BME280;14965;50.660;13.226;2024-01-06T09:34:59;93981.09;;;1.32;100.00
30110;BME280;14965;50.660;13.226;2024-01-06T09:37:25;93977.16;;;1.37;100.00
30110;BME280;14965;50.660;13.226;2024-01-06T09:39:51;93985.28;;;1.44;100.00
30110;BME280;14965;50.660;13.226;2024-01-06T09:42:17;93984.81;;;1.53;100.00
30110;BME280;14965;50.660;13.226;2024-01-06T09:44:43;93982.78;;;1.64;100.00
30110;BME280;14965;50.660;13.226;2024-01-06T09:47:12;93983.03;;;1.77;100.00
30110;BME280;14965;50.660;13.226;2024-01-06T09:49:42;93981.75;;;1.88;100.00
30110;BME280;14965;50.660;13.226;2024-01-06T09:52:15;93969.91;;;2.06;100.00
30110;BME280;14965;50.660;13.226;2024-01-06T09:54:51;93966.94;;;2.27;100.00
30110;BME280;14965;50.660;13.226;2024-01-06T09:57:17;93977.22;;;2.46;100.00
30110;BME280;14965;50.660;13.226;2024-01-06T09:59:44;93980.53;;;2.61;100.00
30110;BME280;14965;50.660;13.226;2024-01-06T10:02:14;93980.00;;;2.73;100.00
30110;BME280;14965;50.660;13.226;2024-01-06T10:04:42;93980.25;;;2.83;100.00
30110;BME280;14965;50.660;13.226;2024-01-06T10:07:09;93976.25;;;2.91;100.00
30110;BME280;14965;50.660;13.226;2024-01-06T10:09:34;93985.97;;;2.92;100.00
30110;BME280;14965;50.660;13.226;2024-01-06T10:12:00;93974.66;;;2.93;100.00
30110;BME280;14965;50.660;13.226;2024-01-06T10:14:26;93979.22;;;3.00;100.00
30110;BME280;14965;50.660;13.226;2024-01-06T10:16:53;93984.91;;;3.13;100.00
30110;BME280;14965;50.660;13.226;2024-01-06T10:19:19;93982.84;;;3.20;100.00
30110;BME280;14965;50.660;13.226;2024-01-06T10:21:46;93984.69;;;3.27;100.00
30110;BME280;14965;50.660;13.226;2024-01-06T10:24:12;93978.78;;;3.32;100.00
30110;BME280;14965;50.660;13.226;2024-01-06T10:26:38;93983.75;;;3.37;100.00
30110;BME280;14965;50.660;13.226;2024-01-06T10:29:04;93983.34;;;3.39;100.00
30110;BME280;14965;50.660;13.226;2024-01-06T10:31:30;93990.69;;;3.42;100.00
30110;BME280;14965;50.660;13.226;2024-01-06T10:33:57;93980.09;;;3.47;100.00
30110;BME280;14965;50.660;13.226;2024-01-06T10:36:23;93984.31;;;3.52;100.00
30110;BME280;14965;50.660;13.226;2024-01-06T10:38:52;93981.53;;;3.56;100.00
30110;BME280;14965;50.660;13.226;2024-01-06T10:41:20;93971.72;;;3.58;100.00
30110;BME280;14965;50.660;13.226;2024-01-06T10:43:50;93979.09;;;3.61;100.00
30110;BME280;14965;50.660;13.226;2024-01-06T10:46:19;93978.25;;;3.64;100.00
30110;BME280;14965;50.660;13.226;2024-01-06T10:48:46;93974.28;;;3.69;100.00
30110;BME280;14965;50.660;13.226;2024-01-06T10:51:14;93971.50;;;3.72;100.00
30110;BME280;14965;50.660;13.226;2024-01-06T10:53:41;93971.13;;;3.70;100.00
30110;BME280;14965;50.660;13.226;2024-01-06T10:56:09;93978.88;;;3.72;100.00
30110;BME280;14965;50.660;13.226;2024-01-06T10:58:36;93974.34;;;3.65;100.00
30110;BME280;14965;50.660;13.226;2024-01-06T11:01:03;93982.25;;;3.60;100.00
30110;BME280;14965;50.660;13.226;2024-01-06T11:03:29;93986.56;;;3.57;100.00
30110;BME280;14965;50.660;13.226;2024-01-06T11:05:58;93978.38;;;3.57;100.00
30110;BME280;14965;50.660;13.226;2024-01-06T11:08:26;93980.72;;;3.55;100.00
30110;BME280;14965;50.660;13.226;2024-01-06T11:10:54;93985.06;;;3.53;100.00
30110;BME280;14965;50.660;13.226;2024-01-06T11:13:23;93981.59;;;3.52;100.00
30110;BME280;14965;50.660;13.226;2024-01-06T11:15:51;93980.81;;;3.52;100.00
30110;BME280;14965;50.660;13.226;2024-01-06T11:18:35;93982.50;;;3.42;99.91
30110;BME280;14965;50.660;13.226;2024-01-06T11:21:21;93985.72;;;3.37;99.36
30110;BME280;14965;50.660;13.226;2024-01-06T11:24:11;93978.66;;;3.39;100.00
30110;BME280;14965;50.660;13.226;2024-01-06T11:26:39;93975.50;;;3.41;99.49
30110;BME280;14965;50.660;13.226;2024-01-06T11:29:08;93980.91;;;3.44;100.00
30110;BME280;14965;50.660;13.226;2024-01-06T11:31:34;93977.41;;;3.44;100.00
30110;BME280;14965;50.660;13.226;2024-01-06T11:34:14;93981.75;;;3.41;99.62
30110;BME280;14965;50.660;13.226;2024-01-06T11:36:43;93988.69;;;3.46;99.91
30110;BME280;14965;50.660;13.226;2024-01-06T11:39:35;93979.66;;;3.49;99.84
30110;BME280;14965;50.660;13.226;2024-01-06T11:42:01;93983.22;;;3.46;99.11
30110;BME280;14965;50.660;13.226;2024-01-06T11:44:29;93982.88;;;3.44;99.13
30110;BME280;14965;50.660;13.226;2024-01-06T11:46:56;93987.50;;;3.47;98.88
30110;BME280;14965;50.660;13.226;2024-01-06T11:49:27;93987.09;;;3.48;100.00
30110;BME280;14965;50.660;13.226;2024-01-06T11:51:53;93986.66;;;3.50;100.00
30110;BME280;14965;50.660;13.226;2024-01-06T11:54:20;93987.03;;;3.52;100.00
30110;BME280;14965;50.660;13.226;2024-01-06T11:56:46;93986.63;;;3.54;100.00
30110;BME280;14965;50.660;13.226;2024-01-06T11:59:12;93983.47;;;3.55;100.00
30110;BME280;14965;50.660;13.226;2024-01-06T12:01:40;93989.88;;;3.45;100.00
30110;BME280;14965;50.660;13.226;2024-01-06T12:04:06;93996.63;;;3.37;100.00
30110;BME280;14965;50.660;13.226;2024-01-06T12:06:33;93992.88;;;3.27;100.00
30110;BME280;14965;50.660;13.226;2024-01-06T12:09:05;93988.66;;;3.22;100.00
30110;BME280;14965;50.660;13.226;2024-01-06T12:11:31;94002.31;;;3.22;100.00
30110;BME280;14965;50.660;13.226;2024-01-06T12:13:57;93992.13;;;3.27;100.00
30110;BME280;14965;50.660;13.226;2024-01-06T12:16:24;93996.09;;;3.22;100.00
30110;BME280;14965;50.660;13.226;2024-01-06T12:18:51;93996.13;;;3.18;100.00
30110;BME280;14965;50.660;13.226;2024-01-06T12:21:17;93992.34;;;3.09;99.73
30110;BME280;14965;50.660;13.226;2024-01-06T12:23:43;93995.81;;;3.13;100.00
30110;BME280;14965;50.660;13.226;2024-01-06T12:26:10;93994.56;;;3.17;100.00
30110;BME280;14965;50.660;13.226;2024-01-06T12:28:36;93997.19;;;3.24;100.00
30110;BME280;14965;50.660;13.226;2024-01-06T12:31:04;93994.91;;;3.23;100.00
30110;BME280;14965;50.660;13.226;2024-01-06T12:33:30;94006.91;;;3.25;100.00
30110;BME280;14965;50.660;13.226;2024-01-06T12:35:58;93992.94;;;3.23;100.00
30110;BME280;14965;50.660;13.226;2024-01-06T12:38:24;93994.53;;;3.21;100.00
30110;BME280;14965;50.660;13.226;2024-01-06T12:40:50;93992.97;;;3.20;100.00
30110;BME280;14965;50.660;13.226;2024-01-06T12:43:16;93999.59;;;3.22;100.00
30110;BME280;14965;50.660;13.226;2024-01-06T12:45:42;93991.34;;;3.26;100.00
30110;BME280;14965;50.660;13.226;2024-01-06T12:48:08;94002.19;;;3.30;100.00
30110;BME280;14965;50.660;13.226;2024-01-06T12:50:34;94010.75;;;3.32;100.00
30110;BME280;14965;50.660;13.226;2024-01-06T12:53:01;93998.59;;;3.36;100.00
30110;BME280;14965;50.660;13.226;2024-01-06T12:55:27;94006.78;;;3.36;100.00
30110;BME280;14965;50.660;13.226;2024-01-06T12:57:53;94001.75;;;3.35;100.00
30110;BME280;14965;50.660;13.226;2024-01-06T13:00:20;94006.56;;;3.23;100.00
30110;BME280;14965;50.660;13.226;2024-01-06T13:02:46;94004.75;;;3.13;100.00
30110;BME280;14965;50.660;13.226;2024-01-06T13:05:11;94008.13;;;2.97;100.00
30110;BME280;14965;50.660;13.226;2024-01-06T13:07:39;94016.69;;;2.96;100.00
30110;BME280;14965;50.660;13.226;2024-01-06T13:10:08;94013.19;;;2.95;100.00
30110;BME280;14965;50.660;13.226;2024-01-06T13:12:34;94011.97;;;3.00;100.00
30110;BME280;14965;50.660;13.226;2024-01-06T13:15:00;94009.66;;;2.98;100.00
30110;BME280;14965;50.660;13.226;2024-01-06T13:17:26;94017.88;;;2.95;100.00
30110;BME280;14965;50.660;13.226;2024-01-06T13:19:52;94021.47;;;2.88;100.00
30110;BME280;14965;50.660;13.226;2024-01-06T13:22:18;94026.19;;;2.84;100.00
30110;BME280;14965;50.660;13.226;2024-01-06T13:24:44;94016.84;;;2.85;100.00
30110;BME280;14965;50.660;13.226;2024-01-06T13:27:11;94018.81;;;2.85;100.00
30110;BME280;14965;50.660;13.226;2024-01-06T13:29:37;94022.34;;;2.82;100.00
30110;BME280;14965;50.660;13.226;2024-01-06T13:32:04;94023.19;;;2.75;100.00
30110;BME280;14965;50.660;13.226;2024-01-06T13:34:30;94021.25;;;2.75;100.00
30110;BME280;14965;50.660;13.226;2024-01-06T13:36:56;94021.66;;;2.74;100.00
30110;BME280;14965;50.660;13.226;2024-01-06T13:39:22;94021.69;;;2.70;100.00
30110;BME280;14965;50.660;13.226;2024-01-06T13:41:48;94024.84;;;2.69;100.00
30110;BME280;14965;50.660;13.226;2024-01-06T13:44:16;94023.69;;;2.66;100.00
30110;BME280;14965;50.660;13.226;2024-01-06T13:46:42;94021.78;;;2.63;100.00
30110;BME280;14965;50.660;13.226;2024-01-06T13:49:08;94026.88;;;2.61;100.00
30110;BME280;14965;50.660;13.226;2024-01-06T13:51:34;94024.50;;;2.63;100.00
30110;BME280;14965;50.660;13.226;2024-01-06T13:54:00;94030.25;;;2.72;100.00
30110;BME280;14965;50.660;13.226;2024-01-06T13:56:26;94031.78;;;2.73;100.00
30110;BME280;14965;50.660;13.226;2024-01-06T13:58:52;94037.25;;;2.73;100.00
30110;BME280;14965;50.660;13.226;2024-01-06T14:01:20;94033.06;;;2.65;100.00
30110;BME280;14965;50.660;13.226;2024-01-06T14:03:46;94034.22;;;2.68;100.00
30110;BME280;14965;50.660;13.226;2024-01-06T14:06:12;94039.66;;;2.68;100.00
30110;BME280;14965;50.660;13.226;2024-01-06T14:08:38;94043.59;;;2.63;100.00
30110;BME280;14965;50.660;13.226;2024-01-06T14:11:04;94040.50;;;2.61;100.00
30110;BME280;14965;50.660;13.226;2024-01-06T14:13:30;94047.88;;;2.64;100.00
30110;BME280;14965;50.660;13.226;2024-01-06T14:15:56;94047.03;;;2.67;100.00
30110;BME280;14965;50.660;13.226;2024-01-06T14:18:23;94061.06;;;2.69;100.00
30110;BME280;14965;50.660;13.226;2024-01-06T14:20:49;94057.53;;;2.72;100.00
30110;BME280;14965;50.660;13.226;2024-01-06T14:23:15;94061.00;;;2.73;100.00
30110;BME280;14965;50.660;13.226;2024-01-06T14:25:41;94055.56;;;2.73;100.00
30110;BME280;14965;50.660;13.226;2024-01-06T14:28:07;94058.63;;;2.75;100.00
30110;BME280;14965;50.660;13.226;2024-01-06T14:30:33;94062.09;;;2.79;100.00
30110;BME280;14965;50.660;13.226;2024-01-06T14:32:59;94064.06;;;2.79;100.00
30110;BME280;14965;50.660;13.226;2024-01-06T14:35:26;94065.25;;;2.78;100.00
30110;BME280;14965;50.660;13.226;2024-01-06T14:37:53;94066.81;;;2.75;100.00
30110;BME280;14965;50.660;13.226;2024-01-06T14:40:20;94075.09;;;2.68;100.00
30110;BME280;14965;50.660;13.226;2024-01-06T14:42:45;94070.41;;;2.68;100.00
30110;BME280;14965;50.660;13.226;2024-01-06T14:45:12;94067.69;;;2.68;100.00
30110;BME280;14965;50.660;13.226;2024-01-06T14:48:07;94072.31;;;2.71;100.00
30110;BME280;14965;50.660;13.226;2024-01-06T14:50:33;94070.72;;;2.74;100.00
30110;BME280;14965;50.660;13.226;2024-01-06T14:52:59;94074.19;;;2.78;100.00
30110;BME280;14965;50.660;13.226;2024-01-06T14:55:25;94078.91;;;2.74;100.00
30110;BME280;14965;50.660;13.226;2024-01-06T14:57:51;94079.34;;;2.72;100.00
30110;BME280;14965;50.660;13.226;2024-01-06T15:00:17;94080.50;;;2.71;100.00
30110;BME280;14965;50.660;13.226;2024-01-06T15:02:43;94082.09;;;2.69;100.00
30110;BME280;14965;50.660;13.226;2024-01-06T15:05:11;94087.16;;;2.67;100.00
30110;BME280;14965;50.660;13.226;2024-01-06T15:07:37;94094.56;;;2.66;100.00
30110;BME280;14965;50.660;13.226;2024-01-06T15:10:04;94095.03;;;2.61;100.00
30110;BME280;14965;50.660;13.226;2024-01-06T15:12:30;94095.47;;;2.56;100.00
30110;BME280;14965;50.660;13.226;2024-01-06T15:14:56;94106.34;;;2.60;100.00
30110;BME280;14965;50.660;13.226;2024-01-06T15:17:22;94102.84;;;2.59;100.00
30110;BME280;14965;50.660;13.226;2024-01-06T15:19:48;94105.19;;;2.57;100.00
30110;BME280;14965;50.660;13.226;2024-01-06T15:22:16;94109.88;;;2.57;100.00
30110;BME280;14965;50.660;13.226;2024-01-06T15:24:42;94104.03;;;2.55;100.00
30110;BME280;14965;50.660;13.226;2024-01-06T15:27:08;94108.72;;;2.54;100.00
30110;BME280;14965;50.660;13.226;2024-01-06T15:29:34;94113.41;;;2.54;100.00
30110;BME280;14965;50.660;13.226;2024-01-06T15:32:00;94118.09;;;2.53;100.00
30110;BME280;14965;50.660;13.226;2024-01-06T15:34:26;94121.22;;;2.52;100.00
30110;BME280;14965;50.660;13.226;2024-01-06T15:36:52;94117.31;;;2.53;100.00
30110;BME280;14965;50.660;13.226;2024-01-06T15:39:19;94116.53;;;2.52;100.00
30110;BME280;14965;50.660;13.226;2024-01-06T15:41:45;94112.66;;;2.49;100.00
30110;BME280;14965;50.660;13.226;2024-01-06T15:44:11;94113.09;;;2.48;100.00
30110;BME280;14965;50.660;13.226;2024-01-06T15:46:37;94109.19;;;2.45;100.00
30110;BME280;14965;50.660;13.226;2024-01-06T15:49:03;94113.13;;;2.44;100.00
30110;BME280;14965;50.660;13.226;2024-01-06T15:51:29;94121.28;;;2.44;100.00
30110;BME280;14965;50.660;13.226;2024-01-06T15:53:55;94112.38;;;2.40;100.00
30110;BME280;14965;50.660;13.226;2024-01-06T15:56:22;94117.88;;;2.33;100.00
30110;BME280;14965;50.660;13.226;2024-01-06T15:58:48;94115.59;;;2.28;100.00
30110;BME280;14965;50.660;13.226;2024-01-06T16:01:14;94113.28;;;2.27;100.00
30110;BME280;14965;50.660;13.226;2024-01-06T16:03:40;94114.06;;;2.27;100.00
30110;BME280;14965;50.660;13.226;2024-01-06T16:06:06;94125.31;;;2.29;100.00
30110;BME280;14965;50.660;13.226;2024-01-06T16:08:32;94115.59;;;2.28;100.00
30110;BME280;14965;50.660;13.226;2024-01-06T16:10:58;94122.59;;;2.29;100.00
30110;BME280;14965;50.660;13.226;2024-01-06T16:13:25;94114.03;;;2.31;100.00
30110;BME280;14965;50.660;13.226;2024-01-06T16:15:52;94122.19;;;2.31;100.00
30110;BME280;14965;50.660;13.226;2024-01-06T16:18:18;94112.88;;;2.28;100.00
30110;BME280;14965;50.660;13.226;2024-01-06T16:20:44;94114.84;;;2.28;100.00
30110;BME280;14965;50.660;13.226;2024-01-06T16:23:10;94120.69;;;2.26;100.00
30110;BME280;14965;50.660;13.226;2024-01-06T16:25:37;94121.53;;;2.19;100.00
30110;BME280;14965;50.660;13.226;2024-01-06T16:28:04;94123.50;;;2.15;100.00
30110;BME280;14965;50.660;13.226;2024-01-06T16:30:32;94127.75;;;2.16;100.00
30110;BME280;14965;50.660;13.226;2024-01-06T16:32:58;94127.41;;;2.14;100.00
30110;BME280;14965;50.660;13.226;2024-01-06T16:35:23;94129.75;;;2.12;100.00
30110;BME280;14965;50.660;13.226;2024-01-06T16:37:49;94135.59;;;2.11;100.00
30110;BME280;14965;50.660;13.226;2024-01-06T16:40:16;94127.03;;;2.09;100.00
30110;BME280;14965;50.660;13.226;2024-01-06T16:42:42;94127.47;;;2.07;100.00
30110;BME280;14965;50.660;13.226;2024-01-06T16:45:08;94134.47;;;2.05;100.00
30110;BME280;14965;50.660;13.226;2024-01-06T16:47:35;94131.38;;;2.03;100.00
30110;BME280;14965;50.660;13.226;2024-01-06T16:50:01;94129.44;;;2.03;100.00
30110;BME280;14965;50.660;13.226;2024-01-06T16:52:28;94130.66;;;1.98;100.00
30110;BME280;14965;50.660;13.226;2024-01-06T16:54:54;94139.22;;;1.97;100.00
30110;BME280;14965;50.660;13.226;2024-01-06T16:57:20;94132.97;;;2.00;100.00
30110;BME280;14965;50.660;13.226;2024-01-06T16:59:46;94132.59;;;1.98;100.00
30110;BME280;14965;50.660;13.226;2024-01-06T17:02:12;94136.88;;;1.95;100.00
30110;BME280;14965;50.660;13.226;2024-01-06T17:04:39;94136.50;;;1.97;100.00
30110;BME280;14965;50.660;13.226;2024-01-06T17:07:05;94152.44;;;1.95;100.00
30110;BME280;14965;50.660;13.226;2024-01-06T17:09:31;94154.81;;;1.93;100.00
30110;BME280;14965;50.660;13.226;2024-01-06T17:11:57;94152.09;;;1.93;100.00
30110;BME280;14965;50.660;13.226;2024-01-06T17:14:23;94156.34;;;1.94;100.00
30110;BME280;14965;50.660;13.226;2024-01-06T17:16:48;94151.66;;;1.98;100.00
30110;BME280;14965;50.660;13.226;2024-01-06T17:19:14;94153.19;;;2.03;100.00
30110;BME280;14965;50.660;13.226;2024-01-06T17:21:42;94164.09;;;1.99;100.00
30110;BME280;14965;50.660;13.226;2024-01-06T17:24:07;94159.81;;;1.98;100.00
30110;BME280;14965;50.660;13.226;2024-01-06T17:26:33;94165.28;;;1.98;100.00
30110;BME280;14965;50.660;13.226;2024-01-06T17:28:59;94161.81;;;1.94;100.00
30110;BME280;14965;50.660;13.226;2024-01-06T17:31:25;94161.81;;;1.90;100.00
30110;BME280;14965;50.660;13.226;2024-01-06T17:33:51;94165.34;;;1.87;100.00
30110;BME280;14965;50.660;13.226;2024-01-06T17:36:17;94161.88;;;1.83;100.00
30110;BME280;14965;50.660;13.226;2024-01-06T17:38:44;94176.66;;;1.82;100.00
30110;BME280;14965;50.660;13.226;2024-01-06T17:41:10;94173.16;;;1.82;100.00
30110;BME280;14965;50.660;13.226;2024-01-06T17:43:36;94182.50;;;1.81;100.00
30110;BME280;14965;50.660;13.226;2024-01-06T17:46:02;94184.81;;;1.82;100.00
30110;BME280;14965;50.660;13.226;2024-01-06T17:48:28;94182.13;;;1.79;100.00
30110;BME280;14965;50.660;13.226;2024-01-06T17:50:54;94186.03;;;1.74;100.00
30110;BME280;14965;50.660;13.226;2024-01-06T17:53:20;94194.22;;;1.70;100.00
30110;BME280;14965;50.660;13.226;2024-01-06T17:55:47;94192.34;;;1.64;100.00
30110;BME280;14965;50.660;13.226;2024-01-06T17:58:13;94183.03;;;1.58;100.00
30110;BME280;14965;50.660;13.226;2024-01-06T18:00:39;94185.75;;;1.54;100.00
30110;BME280;14965;50.660;13.226;2024-01-06T18:03:05;94188.88;;;1.56;100.00
30110;BME280;14965;50.660;13.226;2024-01-06T18:05:31;94190.41;;;1.57;100.00
30110;BME280;14965;50.660;13.226;2024-01-06T18:07:57;94192.72;;;1.62;100.00
30110;BME280;14965;50.660;13.226;2024-01-06T18:10:23;94187.25;;;1.66;100.00
30110;BME280;14965;50.660;13.226;2024-01-06T18:12:50;94195.41;;;1.69;100.00
30110;BME280;14965;50.660;13.226;2024-01-06T18:15:16;94197.72;;;1.71;100.00
30110;BME280;14965;50.660;13.226;2024-01-06T18:17:42;94196.97;;;1.67;100.00
30110;BME280;14965;50.660;13.226;2024-01-06T18:20:10;94196.97;;;1.67;100.00
30110;BME280;14965;50.660;13.226;2024-01-06T18:22:36;94200.09;;;1.65;100.00
30110;BME280;14965;50.660;13.226;2024-01-06T18:25:02;94208.28;;;1.62;100.00
30110;BME280;14965;50.660;13.226;2024-01-06T18:27:28;94201.66;;;1.63;100.00
30110;BME280;14965;50.660;13.226;2024-01-06T18:29:55;94213.38;;;1.56;100.00
30110;BME280;14965;50.660;13.226;2024-01-06T18:32:21;94213.41;;;1.42;100.00
30110;BME280;14965;50.660;13.226;2024-01-06T18:34:47;94210.34;;;1.36;100.00
30110;BME280;14965;50.660;13.226;2024-01-06T18:37:13;94217.38;;;1.30;100.00
30110;BME280;14965;50.660;13.226;2024-01-06T18:39:39;94216.97;;;1.28;100.00
30110;BME280;14965;50.660;13.226;2024-01-06T18:42:06;94209.59;;;1.25;100.00
30110;BME280;14965;50.660;13.226;2024-01-06T18:44:32;94200.66;;;1.28;100.00
30110;BME280;14965;50.660;13.226;2024-01-06T18:46:59;94204.94;;;1.29;100.00
30110;BME280;14965;50.660;13.226;2024-01-06T18:49:25;94206.50;;;1.27;100.00
30110;BME280;14965;50.660;13.226;2024-01-06T18:51:51;94208.84;;;1.24;100.00
30110;BME280;14965;50.660;13.226;2024-01-06T18:54:16;94220.09;;;1.27;100.00
30110;BME280;14965;50.660;13.226;2024-01-06T18:56:42;94212.72;;;1.31;100.00
30110;BME280;14965;50.660;13.226;2024-01-06T18:59:08;94213.91;;;1.26;100.00
30110;BME280;14965;50.660;13.226;2024-01-06T19:01:34;94215.03;;;1.25;100.00
30110;BME280;14965;50.660;13.226;2024-01-06T19:04:01;94208.84;;;1.24;100.00
30110;BME280;14965;50.660;13.226;2024-01-06T19:06:28;94215.47;;;1.20;100.00
30110;BME280;14965;50.660;13.226;2024-01-06T19:08:53;94217.03;;;1.14;100.00
30110;BME280;14965;50.660;13.226;2024-01-06T19:11:19;94225.97;;;1.14;100.00
30110;BME280;14965;50.660;13.226;2024-01-06T19:13:45;94218.19;;;1.20;100.00
30110;BME280;14965;50.660;13.226;2024-01-06T19:16:11;94225.16;;;1.21;100.00
30110;BME280;14965;50.660;13.226;2024-01-06T19:18:37;94229.47;;;1.15;100.00
30110;BME280;14965;50.660;13.226;2024-01-06T19:21:05;94226.75;;;1.11;100.00
30110;BME280;14965;50.660;13.226;2024-01-06T19:23:31;94226.38;;;1.09;100.00
30110;BME280;14965;50.660;13.226;2024-01-06T19:25:57;94234.94;;;1.04;100.00
30110;BME280;14965;50.660;13.226;2024-01-06T19:28:23;94234.97;;;1.01;100.00
30110;BME280;14965;50.660;13.226;2024-01-06T19:30:49;94240.00;;;0.98;100.00
30110;BME280;14965;50.660;13.226;2024-01-06T19:33:14;94243.91;;;0.87;100.00
30110;BME280;14965;50.660;13.226;2024-01-06T19:35:40;94242.00;;;0.84;100.00
30110;BME280;14965;50.660;13.226;2024-01-06T19:38:08;94250.91;;;0.81;100.00
30110;BME280;14965;50.660;13.226;2024-01-06T19:40:34;94250.91;;;0.81;100.00
30110;BME280;14965;50.660;13.226;2024-01-06T19:43:00;94254.00;;;0.83;100.00
30110;BME280;14965;50.660;13.226;2024-01-06T19:45:26;94252.09;;;0.80;100.00
30110;BME280;14965;50.660;13.226;2024-01-06T19:47:52;94251.69;;;0.70;100.00
30110;BME280;14965;50.660;13.226;2024-01-06T19:50:18;94250.16;;;0.62;100.00
30110;BME280;14965;50.660;13.226;2024-01-06T19:52:44;94263.34;;;0.46;100.00
30110;BME280;14965;50.660;13.226;2024-01-06T19:55:11;94261.03;;;0.37;100.00
30110;BME280;14965;50.660;13.226;2024-01-06T19:57:37;94256.78;;;0.26;100.00
30110;BME280;14965;50.660;13.226;2024-01-06T20:00:05;94264.50;;;0.09;100.00
30110;BME280;14965;50.660;13.226;2024-01-06T20:02:31;94267.22;;;0.02;100.00
30110;BME280;14965;50.660;13.226;2024-01-06T20:04:57;94263.34;;;-0.04;100.00
30110;BME280;14965;50.660;13.226;2024-01-06T20:07:23;94265.25;;;-0.05;100.00
30110;BME280;14965;50.660;13.226;2024-01-06T20:09:49;94269.88;;;-0.09;100.00
30110;BME280;14965;50.660;13.226;2024-01-06T20:12:16;94269.50;;;-0.14;100.00
30110;BME280;14965;50.660;13.226;2024-01-06T20:14:42;94269.47;;;-0.18;100.00
30110;BME280;14965;50.660;13.226;2024-01-06T20:17:08;94271.44;;;-0.18;100.00
30110;BME280;14965;50.660;13.226;2024-01-06T20:19:34;94271.44;;;-0.18;100.00
30110;BME280;14965;50.660;13.226;2024-01-06T20:22:00;94272.19;;;-0.18;100.00
30110;BME280;14965;50.660;13.226;2024-01-06T20:24:26;94261.69;;;-0.30;100.00
30110;BME280;14965;50.660;13.226;2024-01-06T20:26:52;94264.78;;;-0.35;100.00
30110;BME280;14965;50.660;13.226;2024-01-06T20:29:19;94276.78;;;-0.40;100.00
30110;BME280;14965;50.660;13.226;2024-01-06T20:31:45;94273.66;;;-0.53;100.00
30110;BME280;14965;50.660;13.226;2024-01-06T20:34:11;94270.53;;;-0.55;100.00
30110;BME280;14965;50.660;13.226;2024-01-06T20:36:36;94268.22;;;-0.56;100.00
30110;BME280;14965;50.660;13.226;2024-01-06T20:39:02;94275.97;;;-0.58;100.00
30110;BME280;14965;50.660;13.226;2024-01-06T20:41:28;94270.13;;;-0.60;100.00
30110;BME280;14965;50.660;13.226;2024-01-06T20:43:54;94261.22;;;-0.61;100.00
30110;BME280;14965;50.660;13.226;2024-01-06T20:46:21;94272.84;;;-0.60;100.00
30110;BME280;14965;50.660;13.226;2024-01-06T20:48:48;94269.34;;;-0.61;100.00
30110;BME280;14965;50.660;13.226;2024-01-06T20:51:16;94272.47;;;-0.62;100.00
30110;BME280;14965;50.660;13.226;2024-01-06T20:53:42;94272.06;;;-0.61;100.00
30110;BME280;14965;50.660;13.226;2024-01-06T20:56:08;94274.78;;;-0.61;100.00
30110;BME280;14965;50.660;13.226;2024-01-06T20:58:34;94275.50;;;-0.67;100.00
30110;BME280;14965;50.660;13.226;2024-01-06T21:01:01;94282.41;;;-0.88;100.00